createdAt,value
2019-01-24T05:44:16.569Z,0.20
2019-01-24T05:54:21.356Z,0.30
2019-01-24T06:04:26.347Z,0.20
2019-01-24T06:14:31.513Z,0.30
2019-01-24T06:24:36.808Z,0.20
2019-01-24T06:34:41.813Z,0.17
2019-01-24T06:44:46.811Z,0.17
2019-01-24T06:54:52.086Z,0.17
2019-01-24T07:04:57.242Z,0.20
2019-01-24T07:15:02.374Z,0.37
2019-01-24T07:25:10.830Z,0.20
2019-01-24T07:35:17.326Z,0.43
2019-01-24T07:45:29.229Z,0.20
2019-01-24T13:22:06.203Z,0.17
2019-01-24T18:49:43.039Z,23.02
2019-01-24T19:03:34.733Z,18.43
2019-01-24T19:13:39.229Z,17.97
2019-01-24T19:23:43.913Z,17.70
2019-01-24T19:33:48.317Z,19.40
2019-01-24T19:43:53.008Z,19.60
2019-01-24T19:53:57.413Z,20.17
2019-01-24T20:04:03.522Z,19.40
2019-01-24T20:14:08.151Z,24.98
2019-01-24T20:24:12.689Z,20.13
2019-01-24T20:34:17.232Z,17.20
2019-01-24T20:44:21.709Z,16.13
2019-01-24T20:54:26.054Z,14.00
2019-01-24T21:04:30.798Z,14.33
2019-01-24T21:14:38.610Z,12.60
2019-01-24T21:24:43.533Z,12.97
2019-01-24T21:34:47.998Z,10.83
2019-01-24T21:44:53.903Z,9.37
2019-01-24T21:54:58.502Z,9.03
2019-01-24T22:05:03.245Z,8.93
2019-01-24T22:15:10.802Z,8.90
2019-01-24T22:25:23.801Z,7.83
2019-01-24T22:35:28.225Z,7.47
2019-01-24T22:45:32.893Z,7.77
2019-01-24T22:55:37.601Z,6.43
2019-01-24T23:05:42.286Z,16.10
2019-01-24T23:15:46.703Z,14.80
2019-01-24T23:25:51.178Z,13.87
2019-01-24T23:35:55.556Z,12.63
2019-01-24T23:45:59.958Z,10.83
2019-01-24T23:56:04.458Z,10.57
